Time;durP1;ratioP1;P1;durP2;ratioP2;P2;SDS_P1;SDS_P2;PMS_P1;PMS_P2;Temp;Humidity;BMP_temperature;BMP_pressure;BME280_temperature;BME280_humidity;BME280_pressure;Samples;Min_cycle;Max_cycle;Signal;HPM_P1;HPM_P2
2024/02/01 00:01:02;;;;;;;3.30;2.22;;;7.50;99.90;;;;;;5013519;28;20200;-79
2024/02/01 00:03:28;;;;;;;0.60;0.60;;;7.60;99.90;;;;;;5013318;28;20224;-79
2024/02/01 00:05:55;;;;;;;1.50;1.40;;;7.60;99.90;;;;;;5013399;28;20200;-79
2024/02/01 00:08:23;;;;;;;2.35;1.88;;;7.60;99.90;;;;;;5013626;28;20719;-79
2024/02/01 00:10:50;;;;;;;3.05;2.70;;;7.60;99.90;;;;;;5013232;28;20668;-79
2024/02/01 00:13:17;;;;;;;2.15;1.95;;;7.60;99.90;;;;;;5012954;28;20698;-79
2024/02/01 00:15:44;;;;;;;1.25;1.15;;;7.70;99.90;;;;;;5013242;28;20220;-77
2024/02/01 00:18:11;;;;;;;1.88;1.77;;;7.70;99.90;;;;;;5013459;28;20203;-79
2024/02/01 00:20:38;;;;;;;1.20;1.17;;;7.70;99.90;;;;;;5013308;28;20682;-79
2024/02/01 00:23:05;;;;;;;0.90;0.70;;;7.70;99.90;;;;;;5022466;22;20220;-82
2024/02/01 00:25:33;;;;;;;0.50;0.50;;;7.70;99.90;;;;;;5005927;28;20201;-83
2024/02/01 00:28:00;;;;;;;3.63;3.30;;;7.70;99.90;;;;;;5014632;28;20646;-82
2024/02/01 00:30:27;;;;;;;11.10;5.90;;;7.70;99.90;;;;;;5015409;28;20212;-82
2024/02/01 00:32:54;;;;;;;0.60;0.60;;;7.70;99.90;;;;;;5014912;28;20337;-83
2024/02/01 00:35:21;;;;;;;0.60;0.60;;;7.70;99.90;;;;;;5014914;28;20196;-83
2024/02/01 00:37:48;;;;;;;8.43;3.45;;;7.70;99.90;;;;;;5014671;28;20208;-82
2024/02/01 00:40:15;;;;;;;3.15;2.28;;;7.70;99.90;;;;;;5014692;28;20652;-82
2024/02/01 00:42:43;;;;;;;1.25;1.25;;;7.70;99.90;;;;;;5014831;28;20286;-84
2024/02/01 00:45:10;;;;;;;3.72;3.42;;;7.60;99.90;;;;;;5014708;28;20679;-82
2024/02/01 00:47:36;;;;;;;4.57;3.17;;;7.50;99.90;;;;;;5014744;28;20196;-82
2024/02/01 00:50:04;;;;;;;1.88;1.70;;;7.40;99.90;;;;;;5015538;28;20719;-84
2024/02/01 00:52:30;;;;;;;0.95;0.77;;;7.40;99.90;;;;;;5014416;28;20219;-83
2024/02/01 00:54:57;;;;;;;5.90;5.38;;;7.30;99.90;;;;;;5016507;28;20200;-83
2024/02/01 00:57:24;;;;;;;1.08;0.73;;;7.20;99.90;;;;;;5020654;28;20196;-83
2024/02/01 00:59:52;;;;;;;1.02;1.02;;;7.20;99.90;;;;;;5027597;28;20192;-83
2024/02/01 01:02:19;;;;;;;1.05;0.88;;;7.20;99.90;;;;;;5027115;28;20219;-83
2024/02/01 01:04:45;;;;;;;3.60;2.72;;;7.10;99.90;;;;;;5017431;28;20208;-82
2024/02/01 01:07:12;;;;;;;0.75;0.75;;;7.10;99.90;;;;;;5016146;28;20267;-83
2024/02/01 01:09:39;;;;;;;4.82;2.35;;;7.10;99.90;;;;;;5016280;28;20713;-83
2024/02/01 01:12:06;;;;;;;4.72;2.45;;;7.10;99.90;;;;;;5016111;28;20225;-83
2024/02/01 01:14:33;;;;;;;4.55;2.78;;;7.00;99.90;;;;;;5016696;28;20261;-83
2024/02/01 01:17:01;;;;;;;3.17;1.98;;;7.10;99.90;;;;;;5016339;28;20264;-81
2024/02/01 01:19:28;;;;;;;1.58;1.25;;;7.10;99.90;;;;;;5016140;28;20683;-83
2024/02/01 01:21:58;;;;;;;4.72;3.28;;;7.10;99.90;;;;;;5015002;28;20223;-81
2024/02/01 01:24:25;;;;;;;7.22;4.63;;;7.10;99.90;;;;;;5015829;28;20212;-82
2024/02/01 01:26:51;;;;;;;1.25;1.25;;;7.10;99.90;;;;;;5015540;28;20738;-82
2024/02/01 01:29:18;;;;;;;2.63;2.42;;;7.00;99.90;;;;;;5016372;28;20213;-82
2024/02/01 01:31:46;;;;;;;1.15;0.80;;;7.10;99.90;;;;;;5014894;28;20196;-82
2024/02/01 01:34:14;;;;;;;3.45;3.25;;;7.10;99.90;;;;;;5015766;28;20200;-82
2024/02/01 01:36:41;;;;;;;1.20;1.05;;;7.10;99.90;;;;;;5015219;28;20668;-77
2024/02/01 01:39:09;;;;;;;2.00;1.90;;;7.10;99.90;;;;;;5015078;28;20214;-82
2024/02/01 01:41:36;;;;;;;1.90;1.80;;;7.10;99.90;;;;;;5014889;28;20235;-81
2024/02/01 01:44:03;;;;;;;0.50;0.40;;;7.10;99.90;;;;;;5015177;28;20226;-82
2024/02/01 01:46:31;;;;;;;1.50;1.17;;;7.10;99.90;;;;;;5015260;28;20197;-81
2024/02/01 01:48:58;;;;;;;0.50;0.50;;;7.20;99.90;;;;;;5014868;28;20729;-82
2024/02/01 01:51:27;;;;;;;2.90;2.70;;;7.10;99.90;;;;;;5014421;28;20196;-82
2024/02/01 01:53:56;;;;;;;6.38;3.40;;;7.20;99.90;;;;;;5014903;28;20235;-81
2024/02/01 01:56:23;;;;;;;3.20;2.70;;;7.20;99.90;;;;;;5015504;28;20712;-81
2024/02/01 01:58:51;;;;;;;0.75;0.75;;;7.10;99.90;;;;;;5013677;28;20196;-81
2024/02/01 02:01:19;;;;;;;3.03;2.83;;;7.10;99.90;;;;;;5013617;28;20196;-80
2024/02/01 02:03:48;;;;;;;2.88;1.17;;;7.20;99.90;;;;;;5013416;28;20220;-80
2024/02/01 02:06:15;;;;;;;5.53;4.55;;;7.20;99.90;;;;;;5013505;28;20259;-80
2024/02/01 02:08:43;;;;;;;2.00;1.88;;;7.20;99.90;;;;;;5013249;28;20196;-80
2024/02/01 02:11:11;;;;;;;10.65;4.93;;;7.20;99.90;;;;;;5013357;28;20591;-78
2024/02/01 02:13:37;;;;;;;2.80;2.55;;;7.20;99.90;;;;;;5012476;28;20223;-79
2024/02/01 02:16:05;;;;;;;1.80;1.70;;;7.20;99.90;;;;;;5012674;28;20208;-81
2024/02/01 02:18:31;;;;;;;1.13;1.02;;;7.20;99.90;;;;;;5012931;28;20197;-82
2024/02/01 02:21:01;;;;;;;0.52;0.52;;;7.20;99.90;;;;;;5012913;28;20192;-80
2024/02/01 02:23:29;;;;;;;1.30;1.20;;;7.20;99.90;;;;;;5012520;28;20217;-82
2024/02/01 02:25:56;;;;;;;1.55;1.45;;;7.20;99.90;;;;;;5012819;28;20199;-80
2024/02/01 02:28:23;;;;;;;2.45;1.88;;;7.30;99.90;;;;;;5012924;28;20207;-81
2024/02/01 02:30:49;;;;;;;1.60;1.50;;;7.30;99.90;;;;;;5012999;28;20223;-81
2024/02/01 02:33:16;;;;;;;3.03;2.78;;;7.30;99.90;;;;;;5011932;28;20220;-81
2024/02/01 02:35:44;;;;;;;1.75;1.40;;;7.30;99.90;;;;;;5013205;28;20571;-82
2024/02/01 02:38:10;;;;;;;2.60;2.40;;;7.30;99.90;;;;;;5012527;28;20205;-81
2024/02/01 02:40:38;;;;;;;1.58;1.48;;;7.30;99.90;;;;;;5012154;28;20192;-81
2024/02/01 02:43:05;;;;;;;4.30;3.90;;;7.40;99.90;;;;;;5011908;28;20595;-79
2024/02/01 02:45:32;;;;;;;4.55;2.85;;;7.30;99.90;;;;;;5012117;28;20203;-81
2024/02/01 02:47:59;;;;;;;2.75;2.55;;;7.40;99.90;;;;;;5012335;28;20193;-80
2024/02/01 02:50:25;;;;;;;3.40;3.08;;;7.40;99.90;;;;;;5012224;28;20217;-81
2024/02/01 02:52:53;;;;;;;3.58;2.47;;;7.40;99.90;;;;;;5012015;28;20212;-80
2024/02/01 02:55:20;;;;;;;3.05;2.85;;;7.40;99.90;;;;;;5012234;28;20255;-81
2024/02/01 02:57:48;;;;;;;0.98;0.82;;;7.40;99.90;;;;;;5012433;28;20197;-81
2024/02/01 03:00:18;;;;;;;0.50;0.50;;;7.50;99.90;;;;;;5012287;28;20196;-80
2024/02/01 03:02:46;;;;;;;1.88;1.58;;;7.50;99.90;;;;;;5012680;28;20306;-81
2024/02/01 03:05:15;;;;;;;2.20;2.00;;;7.50;99.90;;;;;;5013045;28;20212;-79
2024/02/01 03:07:42;;;;;;;1.23;1.05;;;7.50;99.90;;;;;;5012974;28;20196;-81
2024/02/01 03:10:09;;;;;;;0.90;0.90;;;7.50;99.90;;;;;;5012365;28;20248;-80
2024/02/01 03:12:36;;;;;;;2.35;2.15;;;7.50;99.90;;;;;;5011664;28;20320;-78
2024/02/01 03:15:05;;;;;;;0.45;0.40;;;7.50;99.90;;;;;;5012358;28;20201;-81
2024/02/01 03:17:34;;;;;;;0.95;0.95;;;7.50;99.90;;;;;;5012627;28;20655;-81
2024/02/01 03:20:00;;;;;;;2.28;1.90;;;7.50;99.90;;;;;;5012172;28;20197;-79
2024/02/01 03:22:27;;;;;;;1.52;1.00;;;7.50;99.90;;;;;;5014848;28;20224;-81
2024/02/01 03:24:59;;;;;;;2.53;1.63;;;7.60;99.90;;;;;;5015726;28;20200;-82
2024/02/01 03:27:26;;;;;;;1.85;0.88;;;7.60;99.90;;;;;;5007551;28;20197;-80
2024/02/01 03:29:52;;;;;;;1.80;1.70;;;7.60;99.90;;;;;;5015558;28;20213;-80
2024/02/01 03:32:21;;;;;;;1.20;0.98;;;7.60;99.90;;;;;;5015418;28;20216;-82
2024/02/01 03:34:47;;;;;;;1.33;1.25;;;7.60;99.90;;;;;;5015534;28;20571;-81
2024/02/01 03:37:14;;;;;;;2.47;1.85;;;7.60;99.90;;;;;;5015264;28;20211;-81
2024/02/01 03:39:41;;;;;;;3.10;2.35;;;7.60;99.90;;;;;;5015404;28;20766;-81
2024/02/01 03:42:08;;;;;;;0.65;0.65;;;7.60;99.90;;;;;;5015120;28;20595;-81
2024/02/01 03:44:37;;;;;;;0.93;0.80;;;7.60;99.90;;;;;;5015523;28;20676;-81
2024/02/01 03:47:09;;;;;;;0.40;0.40;;;7.70;99.90;;;;;;5015137;28;20204;-79
2024/02/01 03:49:39;;;;;;;0.73;0.73;;;7.70;99.90;;;;;;5015287;28;20287;-81
2024/02/01 03:52:07;;;;;;;0.60;0.60;;;7.70;99.90;;;;;;5014889;28;20228;-80
2024/02/01 03:54:33;;;;;;;0.50;0.40;;;7.70;99.90;;;;;;5015412;28;20266;-80
2024/02/01 03:57:00;;;;;;;4.20;1.95;;;7.70;99.90;;;;;;5015097;28;20228;-80
2024/02/01 03:59:27;;;;;;;0.40;0.38;;;7.80;99.90;;;;;;5014892;28;20197;-80
2024/02/01 04:01:54;;;;;;;0.55;0.55;;;7.80;99.90;;;;;;5015051;28;20216;-81
2024/02/01 04:04:21;;;;;;;0.95;0.95;;;7.80;99.90;;;;;;5022133;28;20207;-82
2024/02/01 04:06:51;;;;;;;0.40;0.40;;;7.80;99.90;;;;;;5023351;28;20208;-82
2024/02/01 04:09:18;;;;;;;0.70;0.65;;;7.80;99.90;;;;;;5020373;28;20204;-82
2024/02/01 04:11:44;;;;;;;2.53;2.42;;;7.80;99.90;;;;;;5016614;28;20710;-82
2024/02/01 04:14:11;;;;;;;3.10;2.90;;;7.80;99.90;;;;;;5016498;28;20205;-81
2024/02/01 04:16:38;;;;;;;1.17;0.57;;;7.80;99.90;;;;;;5017222;28;20197;-82
2024/02/01 04:19:05;;;;;;;1.38;1.27;;;7.80;99.90;;;;;;5016710;28;20210;-81
2024/02/01 04:21:31;;;;;;;0.40;0.30;;;7.90;99.90;;;;;;5008762;28;20204;-82
2024/02/01 04:24:00;;;;;;;2.33;1.58;;;7.80;99.90;;;;;;5016288;28;20220;-82
2024/02/01 04:26:26;;;;;;;2.13;1.92;;;7.90;99.90;;;;;;5016494;28;20220;-82
2024/02/01 04:28:53;;;;;;;1.35;1.25;;;7.90;99.90;;;;;;5016402;28;20219;-81
2024/02/01 04:31:19;;;;;;;1.88;1.77;;;7.90;99.90;;;;;;5015645;28;20758;-77
2024/02/01 04:33:46;;;;;;;0.40;0.30;;;7.90;99.90;;;;;;5016262;28;20216;-83
2024/02/01 04:36:13;;;;;;;1.23;0.80;;;8.00;99.90;;;;;;5015594;28;20472;-82
2024/02/01 04:38:40;;;;;;;0.40;0.40;;;7.90;99.90;;;;;;5015744;28;20207;-82
2024/02/01 04:41:10;;;;;;;0.40;0.30;;;7.90;99.90;;;;;;5015495;28;20545;-82
2024/02/01 04:43:37;;;;;;;0.80;0.80;;;7.90;99.90;;;;;;5014769;28;20224;-80
2024/02/01 04:46:04;;;;;;;0.40;0.40;;;8.00;99.90;;;;;;5015030;28;20211;-82
2024/02/01 04:48:31;;;;;;;1.52;0.95;;;8.00;99.90;;;;;;5014284;28;20200;-80
2024/02/01 04:50:58;;;;;;;1.48;0.88;;;8.00;99.90;;;;;;5014360;28;20213;-81
2024/02/01 04:53:24;;;;;;;0.40;0.40;;;8.00;99.90;;;;;;5014170;28;20231;-82
2024/02/01 04:55:51;;;;;;;0.40;0.40;;;8.00;99.90;;;;;;5014089;28;20667;-80
2024/02/01 04:58:20;;;;;;;2.55;1.67;;;8.00;99.90;;;;;;5014223;28;20307;-80
2024/02/01 05:00:47;;;;;;;0.50;0.50;;;8.00;99.90;;;;;;5014121;28;20199;-80
2024/02/01 05:03:15;;;;;;;0.40;0.40;;;8.00;99.90;;;;;;5018547;28;20221;-78
2024/02/01 05:05:45;;;;;;;1.63;1.52;;;8.00;99.90;;;;;;5018025;28;20204;-80
2024/02/01 05:08:12;;;;;;;1.95;1.55;;;8.00;99.90;;;;;;5015338;28;20212;-79
2024/02/01 05:10:43;;;;;;;5.30;1.60;;;8.00;99.90;;;;;;5015529;28;20244;-79
2024/02/01 05:13:11;;;;;;;1.95;1.42;;;8.10;99.90;;;;;;5014864;28;20224;-79
2024/02/01 05:15:39;;;;;;;0.40;0.38;;;8.10;99.90;;;;;;5014953;28;20200;-80
2024/02/01 05:18:06;;;;;;;0.40;0.40;;;8.10;99.90;;;;;;5015306;28;20205;-79
2024/02/01 05:20:33;;;;;;;1.23;1.23;;;8.10;99.90;;;;;;5013000;28;20214;-81
2024/02/01 05:22:59;;;;;;;0.40;0.30;;;8.10;99.90;;;;;;5013287;28;20224;-80
2024/02/01 05:25:27;;;;;;;1.23;1.23;;;8.10;99.90;;;;;;5013033;28;20201;-80
2024/02/01 05:27:54;;;;;;;0.40;0.40;;;8.20;99.90;;;;;;5013364;28;20200;-79
2024/02/01 05:30:22;;;;;;;0.40;0.40;;;8.20;99.90;;;;;;5012872;28;20239;-80
2024/02/01 05:32:52;;;;;;;0.82;0.82;;;8.20;99.90;;;;;;5014060;28;20212;-81
2024/02/01 05:35:27;;;;;;;1.30;0.68;;;8.20;99.90;;;;;;5016695;28;20227;-80
2024/02/01 05:37:54;;;;;;;1.60;1.60;;;8.20;99.90;;;;;;5015019;28;20246;-79
2024/02/01 05:40:21;;;;;;;0.40;0.40;;;8.20;99.90;;;;;;5013937;28;20200;-82
2024/02/01 05:42:48;;;;;;;3.05;2.35;;;8.20;99.90;;;;;;5012962;28;20220;-79
2024/02/01 05:45:16;;;;;;;0.95;0.95;;;8.20;99.90;;;;;;5012965;28;20211;-79
2024/02/01 05:47:42;;;;;;;2.92;2.67;;;8.20;99.90;;;;;;5014045;28;20196;-80
2024/02/01 05:50:14;;;;;;;3.08;2.88;;;8.20;99.90;;;;;;5013877;28;20302;-81
2024/02/01 05:52:41;;;;;;;2.65;1.15;;;8.20;99.90;;;;;;5005649;28;20216;-81
2024/02/01 05:55:10;;;;;;;0.43;0.38;;;8.20;99.90;;;;;;5013722;28;20204;-81
2024/02/01 05:57:38;;;;;;;1.73;1.63;;;8.20;99.90;;;;;;5013721;28;20207;-79
2024/02/01 06:00:09;;;;;;;0.50;0.50;;;8.20;99.90;;;;;;5013889;28;20199;-80
2024/02/01 06:02:36;;;;;;;1.05;1.05;;;8.10;99.90;;;;;;5011348;28;20611;-81
2024/02/01 06:05:04;;;;;;;1.65;1.55;;;8.10;99.90;;;;;;5015806;28;20204;-80
2024/02/01 06:07:32;;;;;;;2.05;0.65;;;8.00;99.90;;;;;;5014816;28;20200;-79
2024/02/01 06:09:59;;;;;;;0.40;0.40;;;8.00;99.90;;;;;;5015597;28;20203;-81
2024/02/01 06:12:27;;;;;;;0.40;0.30;;;8.00;99.90;;;;;;5015605;28;20679;-81
2024/02/01 06:14:54;;;;;;;0.65;0.65;;;7.90;99.90;;;;;;5015636;28;20223;-82
2024/02/01 06:17:20;;;;;;;2.03;1.63;;;7.90;99.90;;;;;;5014026;28;20207;-80
2024/02/01 06:19:47;;;;;;;0.40;0.40;;;7.90;99.90;;;;;;5015402;28;20204;-80
2024/02/01 06:22:14;;;;;;;0.60;0.57;;;7.80;99.90;;;;;;5014223;28;20227;-80
2024/02/01 06:24:42;;;;;;;5.93;2.50;;;7.70;99.90;;;;;;5015402;28;20196;-80
2024/02/01 06:27:09;;;;;;;0.50;0.50;;;7.50;99.90;;;;;;5015196;28;20228;-82
2024/02/01 06:29:37;;;;;;;0.50;0.50;;;7.50;99.90;;;;;;5013506;28;20204;-82
2024/02/01 06:32:12;;;;;;;1.77;1.10;;;7.40;99.90;;;;;;5013149;28;20220;-81
2024/02/01 06:34:39;;;;;;;0.40;0.38;;;7.20;99.90;;;;;;5014834;28;20520;-82
2024/02/01 06:37:08;;;;;;;1.70;1.70;;;7.10;99.90;;;;;;5016019;28;20203;-83
2024/02/01 06:39:48;;;;;;;0.40;0.40;;;6.90;99.90;;;;;;5015055;28;20246;-83
2024/02/01 06:42:24;;;;;;;0.40;0.40;;;6.80;99.90;;;;;;5014686;28;20227;-82
2024/02/01 06:45:08;;;;;;;1.23;1.23;;;6.70;99.90;;;;;;5015772;28;20210;-81
2024/02/01 06:47:38;;;;;;;0.40;0.40;;;6.60;99.90;;;;;;5013090;28;20568;-81
2024/02/01 06:50:17;;;;;;;2.47;1.30;;;6.50;99.90;;;;;;5014334;28;20196;-79
2024/02/01 06:52:45;;;;;;;0.40;0.40;;;6.40;99.90;;;;;;5012934;28;20212;-81
2024/02/01 06:58:13;;;;;;;0.60;0.60;;;6.20;99.90;;;;;;5011360;28;20571;-81
2024/02/01 07:00:51;;;;;;;0.40;0.40;;;6.10;99.90;;;;;;5017179;28;20208;-81
2024/02/01 07:03:44;;;;;;;0.40;0.40;;;6.00;99.90;;;;;;5018284;28;20710;-81
2024/02/01 07:08:56;;;;;;;0.40;0.40;;;5.80;99.90;;;;;;5012120;28;20188;-83
2024/02/01 07:11:30;;;;;;;0.40;0.40;;;5.80;99.90;;;;;;5018263;28;20223;-81
2024/02/01 07:14:08;;;;;;;0.40;0.40;;;5.70;99.90;;;;;;5018479;28;20231;-83
2024/02/01 07:16:54;;;;;;;0.43;0.40;;;5.60;99.90;;;;;;5019071;28;20609;-84
2024/02/01 07:19:52;;;;;;;0.40;0.40;;;5.50;99.90;;;;;;5019290;28;20196;-83
2024/02/01 07:22:34;;;;;;;0.40;0.40;;;5.40;99.90;;;;;;5015728;28;20251;-83
2024/02/01 07:25:10;;;;;;;0.40;0.40;;;5.40;99.90;;;;;;5012826;28;20192;-83
2024/02/01 07:57:58;;;;;;;0.40;0.40;;;5.20;99.90;;;;;;5021066;28;20199;-80
2024/02/01 08:00:34;;;;;;;0.40;0.40;;;5.30;99.90;;;;;;5021654;28;20200;-79
2024/02/01 08:03:11;;;;;;;0.40;0.40;;;5.70;99.90;;;;;;5020792;28;20208;-79
2024/02/01 08:08:22;;;;;;;0.40;0.30;;;6.80;99.90;;;;;;5020273;28;20224;-80
2024/02/01 08:10:56;;;;;;;0.40;0.40;;;7.40;99.90;;;;;;5020755;28;20576;-81
2024/02/01 08:13:23;;;;;;;0.40;0.32;;;8.00;99.90;;;;;;5022562;28;20230;-80
2024/02/01 08:15:52;;;;;;;0.40;0.40;;;8.30;99.90;;;;;;5021730;28;20235;-80
2024/02/01 08:18:21;;;;;;;0.40;0.40;;;8.50;99.90;;;;;;5022038;28;20211;-80
2024/02/01 08:20:47;;;;;;;0.40;0.40;;;8.70;99.90;;;;;;5021013;28;20271;-81
2024/02/01 08:23:19;;;;;;;0.50;0.40;;;9.10;99.90;;;;;;5020597;28;20228;-81
2024/02/01 08:25:46;;;;;;;0.50;0.37;;;9.60;99.90;;;;;;5019888;28;20203;-80
2024/02/01 08:28:12;;;;;;;0.50;0.40;;;10.30;99.90;;;;;;5019940;28;20442;-80
2024/02/01 08:30:39;;;;;;;0.50;0.40;;;11.00;99.90;;;;;;5022266;28;20507;-82
2024/02/01 08:33:15;;;;;;;0.50;0.40;;;11.40;99.90;;;;;;5023259;28;20514;-82
2024/02/01 08:35:44;;;;;;;0.50;0.40;;;11.90;99.90;;;;;;5021156;28;20454;-79
2024/02/01 08:38:11;;;;;;;0.50;0.40;;;12.30;99.90;;;;;;5021384;28;20530;-79
2024/02/01 08:40:40;;;;;;;1.17;0.90;;;12.60;99.90;;;;;;5022069;28;20531;-81
2024/02/01 08:43:09;;;;;;;0.50;0.40;;;13.00;99.90;;;;;;5022761;28;20459;-80
2024/02/01 08:45:38;;;;;;;0.50;0.40;;;13.40;99.90;;;;;;5022443;28;20444;-81
2024/02/01 08:48:05;;;;;;;0.50;0.40;;;13.90;99.90;;;;;;5021286;28;20486;-81
2024/02/01 08:50:34;;;;;;;0.50;0.40;;;14.30;99.90;;;;;;5019489;28;20515;-80
2024/02/01 08:53:08;;;;;;;0.50;0.40;;;14.80;99.90;;;;;;5019210;28;21006;-81
2024/02/01 08:55:34;;;;;;;0.50;0.37;;;14.80;99.90;;;;;;5020832;28;20454;-80
2024/02/01 08:58:08;;;;;;;0.50;0.40;;;15.00;99.90;;;;;;5019726;28;20447;-80
2024/02/01 09:00:36;;;;;;;0.50;0.40;;;15.10;99.90;;;;;;5018781;28;20447;-80
2024/02/01 09:03:05;;;;;;;0.50;0.30;;;15.10;99.90;;;;;;5019960;28;20468;-81
2024/02/01 09:05:34;;;;;;;0.50;0.40;;;15.30;99.90;;;;;;5019633;28;20817;-79
2024/02/01 09:08:03;;;;;;;0.50;0.30;;;15.80;99.90;;;;;;5019304;28;20446;-82
2024/02/01 09:10:30;;;;;;;0.50;0.40;;;16.40;99.90;;;;;;5020844;28;20436;-81
2024/02/01 09:12:57;;;;;;;0.60;0.40;;;16.50;99.90;;;;;;5021468;28;20505;-79
2024/02/01 09:15:24;;;;;;;4.07;3.73;;;16.60;99.90;;;;;;5019792;28;20534;-79
2024/02/01 09:17:52;;;;;;;0.50;0.40;;;16.70;99.90;;;;;;5020619;28;20448;-80
2024/02/01 09:20:19;;;;;;;0.50;0.40;;;16.30;99.90;;;;;;5019027;28;20550;-81
2024/02/01 09:22:48;;;;;;;0.50;0.40;;;16.30;99.90;;;;;;5017979;28;20483;-81
2024/02/01 09:25:18;;;;;;;0.50;0.30;;;16.20;99.90;;;;;;5018421;28;20451;-79
2024/02/01 09:27:46;;;;;;;0.50;0.40;;;15.70;99.90;;;;;;5017111;28;20444;-82
2024/02/01 09:30:13;;;;;;;0.50;0.30;;;15.20;99.90;;;;;;5018264;28;20881;-81
2024/02/01 09:32:40;;;;;;;0.50;0.33;;;15.00;99.90;;;;;;5016849;28;21100;-79
2024/02/01 09:35:09;;;;;;;0.60;0.60;;;15.00;99.90;;;;;;5016902;28;20893;-82
2024/02/01 09:37:36;;;;;;;0.50;0.40;;;14.60;99.90;;;;;;5017343;28;20444;-81
2024/02/01 09:40:09;;;;;;;1.63;0.63;;;14.00;99.90;;;;;;5017076;28;20451;-82
2024/02/01 09:42:38;;;;;;;0.50;0.40;;;13.60;99.90;;;;;;5016471;28;20909;-81
2024/02/01 09:45:07;;;;;;;0.50;0.37;;;13.20;99.90;;;;;;5014959;28;20451;-80
2024/02/01 09:47:42;;;;;;;0.50;0.40;;;13.10;99.90;;;;;;5016599;28;20439;-80
2024/02/01 09:50:12;;;;;;;0.50;0.40;;;13.00;99.90;;;;;;5011908;28;20447;-80
2024/02/01 09:52:40;;;;;;;0.80;0.70;;;12.90;99.90;;;;;;5016325;28;20905;-81
2024/02/01 09:55:08;;;;;;;1.23;1.13;;;12.80;99.90;;;;;;5017570;28;20444;-82
2024/02/01 09:57:40;;;;;;;0.70;0.40;;;13.00;99.90;;;;;;5016228;28;20451;-80
2024/02/01 10:00:14;;;;;;;0.50;0.40;;;13.10;99.90;;;;;;5021508;28;20511;-81
2024/02/01 10:02:42;;;;;;;0.50;0.40;;;12.90;99.90;;;;;;5016417;28;20455;-81
2024/02/01 10:05:09;;;;;;;0.50;0.40;;;12.80;99.90;;;;;;5016068;28;20443;-80
2024/02/01 10:07:36;;;;;;;0.50;0.40;;;12.60;99.90;;;;;;5017063;28;20526;-80
2024/02/01 10:10:05;;;;;;;0.50;0.40;;;12.60;99.90;;;;;;5009481;28;20542;-82
2024/02/01 10:12:32;;;;;;;0.50;0.40;;;12.70;99.90;;;;;;5018880;28;20490;-82
2024/02/01 10:14:59;;;;;;;0.50;0.40;;;12.80;99.90;;;;;;5019693;28;20507;-82
2024/02/01 10:17:28;;;;;;;4.60;1.80;;;12.70;99.90;;;;;;5018376;28;20451;-82
2024/02/01 10:19:55;;;;;;;0.50;0.40;;;12.40;99.90;;;;;;5018622;28;20483;-82
2024/02/01 10:22:21;;;;;;;0.50;0.40;;;12.40;99.90;;;;;;5017925;28;20464;-81
2024/02/01 10:24:51;;;;;;;0.50;0.40;;;12.30;99.90;;;;;;5017911;28;20454;-83
2024/02/01 10:27:19;;;;;;;0.50;0.40;;;12.40;99.90;;;;;;5018760;28;20478;-78
2024/02/01 10:29:46;;;;;;;0.50;0.40;;;12.20;99.90;;;;;;5018244;28;20448;-81
2024/02/01 10:32:15;;;;;;;5.10;0.70;;;12.30;99.90;;;;;;5022705;28;20989;-81
2024/02/01 10:34:50;;;;;;;0.50;0.40;;;12.10;99.90;;;;;;5019968;28;20877;-80
2024/02/01 10:37:18;;;;;;;0.50;0.40;;;12.20;99.90;;;;;;5019806;28;20446;-80
2024/02/01 10:39:54;;;;;;;0.50;0.40;;;12.40;99.90;;;;;;5020099;28;20906;-80
2024/02/01 10:42:22;;;;;;;3.07;0.97;;;12.40;99.90;;;;;;5018808;28;20462;-82
2024/02/01 10:44:54;;;;;;;0.60;0.50;;;12.40;99.90;;;;;;5019216;28;20450;-80
2024/02/01 10:47:25;;;;;;;0.50;0.30;;;12.70;99.90;;;;;;5018871;28;20771;-80
2024/02/01 10:49:56;;;;;;;0.50;0.40;;;12.90;99.90;;;;;;5018782;28;21121;-80
2024/02/01 10:52:27;;;;;;;0.80;0.80;;;13.20;99.90;;;;;;5019987;28;20497;-82
2024/02/01 10:54:54;;;;;;;1.27;0.50;;;13.60;99.90;;;;;;5020351;28;20451;-80
2024/02/01 10:57:22;;;;;;;0.50;0.40;;;13.70;99.90;;;;;;5019618;28;20518;-80
2024/02/01 10:59:50;;;;;;;1.00;0.60;;;13.60;99.90;;;;;;5020062;28;20451;-81
2024/02/01 11:02:19;;;;;;;0.50;0.40;;;13.70;99.90;;;;;;5021718;28;20455;-80
2024/02/01 11:04:47;;;;;;;0.50;0.40;;;14.10;99.90;;;;;;5024703;28;20443;-81
2024/02/01 11:07:21;;;;;;;1.67;1.57;;;14.60;99.90;;;;;;5024169;28;20514;-83
2024/02/01 11:10:13;;;;;;;0.50;0.30;;;14.80;99.90;;;;;;5021834;28;20439;-82
2024/02/01 11:12:40;;;;;;;0.50;0.50;;;14.70;99.90;;;;;;5023635;28;20482;-82
2024/02/01 11:15:16;;;;;;;0.50;0.30;;;14.60;99.90;;;;;;5026345;28;20442;-82
2024/02/01 11:17:43;;;;;;;0.50;0.40;;;14.30;99.90;;;;;;5023020;28;20443;-80
2024/02/01 11:20:11;;;;;;;0.50;0.40;;;14.10;99.90;;;;;;5015762;28;20447;-83
2024/02/01 11:22:41;;;;;;;0.50;0.40;;;13.80;99.90;;;;;;5024670;28;20471;-82
2024/02/01 11:25:08;;;;;;;0.50;0.40;;;13.50;99.90;;;;;;5022725;28;20444;-83
2024/02/01 11:27:36;;;;;;;0.50;0.40;;;13.10;99.90;;;;;;5023855;28;20450;-81
2024/02/01 11:30:19;;;;;;;0.50;0.40;;;13.20;99.90;;;;;;5026542;28;20443;-81
2024/02/01 11:32:46;;;;;;;0.50;0.40;;;13.20;99.90;;;;;;5023818;28;20478;-83
2024/02/01 11:35:16;;;;;;;0.50;0.40;;;13.20;99.90;;;;;;5021644;28;20443;-81
2024/02/01 11:37:44;;;;;;;0.50;0.40;;;13.10;99.90;;;;;;5022483;28;20439;-82
2024/02/01 11:40:18;;;;;;;0.90;0.90;;;13.40;99.90;;;;;;5013276;28;20784;-81
2024/02/01 11:42:45;;;;;;;1.63;1.53;;;13.60;99.90;;;;;;5017206;28;20471;-80
2024/02/01 11:45:14;;;;;;;0.50;0.40;;;13.80;99.90;;;;;;5012744;28;20441;-81
2024/02/01 11:47:42;;;;;;;3.03;0.67;;;14.20;99.90;;;;;;5019850;28;20448;-82
2024/02/01 11:50:10;;;;;;;0.50;0.30;;;14.70;99.90;;;;;;5021478;28;20439;-83
2024/02/01 11:52:44;;;;;;;16.33;1.13;;;14.90;99.90;;;;;;5023868;28;20487;-81
2024/02/01 11:55:14;;;;;;;0.50;0.30;;;15.00;99.90;;;;;;5024355;28;20447;-83
2024/02/01 11:57:47;;;;;;;2.33;0.47;;;14.90;99.90;;;;;;5023335;28;20435;-84
2024/02/01 12:00:16;;;;;;;0.50;0.50;;;14.70;99.90;;;;;;5015435;28;20958;-83
2024/02/01 12:02:46;;;;;;;0.50;0.40;;;14.80;99.90;;;;;;5020945;28;20466;-83
2024/02/01 12:05:13;;;;;;;0.50;0.40;;;15.10;99.90;;;;;;5010475;28;20802;-80
2024/02/01 12:07:41;;;;;;;3.43;0.93;;;15.40;99.90;;;;;;5017880;28;20444;-81
2024/02/01 12:10:12;;;;;;;0.50;0.50;;;15.50;99.90;;;;;;5018768;28;20886;-81
2024/02/01 12:12:40;;;;;;;0.50;0.40;;;15.80;99.90;;;;;;5018512;28;20537;-81
2024/02/01 12:15:09;;;;;;;0.50;0.40;;;15.60;99.90;;;;;;5020276;28;20471;-81
2024/02/01 12:17:42;;;;;;;0.50;0.40;;;15.60;99.90;;;;;;5019835;28;20470;-81
2024/02/01 12:20:10;;;;;;;5.90;0.90;;;15.70;99.90;;;;;;5019866;28;20510;-83
2024/02/01 12:22:37;;;;;;;0.50;0.40;;;15.30;99.90;;;;;;5019882;28;20838;-82
2024/02/01 12:25:04;;;;;;;4.53;1.90;;;15.20;99.90;;;;;;5020199;28;20530;-84
2024/02/01 12:27:33;;;;;;;0.50;0.40;;;14.70;98.70;;;;;;5020895;28;20853;-83
2024/02/01 12:30:01;;;;;;;0.50;0.40;;;14.30;99.90;;;;;;5020952;28;20515;-84
2024/02/01 12:32:28;;;;;;;1.07;1.07;;;13.80;99.90;;;;;;5019266;28;20479;-80
2024/02/01 12:34:55;;;;;;;4.23;1.50;;;13.20;99.90;;;;;;5020781;28;21202;-83
2024/02/01 12:37:22;;;;;;;0.50;0.40;;;12.60;99.90;;;;;;5022595;28;20881;-81
2024/02/01 12:39:48;;;;;;;0.50;0.40;;;12.10;99.90;;;;;;5020899;28;20522;-83
2024/02/01 12:42:16;;;;;;;0.73;0.73;;;11.70;99.90;;;;;;5013439;28;20463;-81
2024/02/01 12:44:42;;;;;;;0.50;0.40;;;11.40;99.90;;;;;;5022610;28;20502;-81
2024/02/01 12:47:10;;;;;;;1.20;0.60;;;11.00;99.90;;;;;;5022472;28;20502;-83
2024/02/01 12:49:38;;;;;;;0.50;0.40;;;10.90;99.90;;;;;;5022327;28;20538;-81
2024/02/01 12:52:06;;;;;;;0.50;0.40;;;10.50;99.90;;;;;;5021208;28;20806;-82
2024/02/01 12:54:34;;;;;;;0.50;0.40;;;10.50;99.90;;;;;;5020654;28;20506;-83
2024/02/01 12:57:01;;;;;;;0.50;0.40;;;10.70;99.90;;;;;;5022597;28;20558;-80
2024/02/01 12:59:29;;;;;;;4.20;2.20;;;10.90;99.90;;;;;;5021713;28;20493;-82
2024/02/01 13:01:57;;;;;;;0.53;0.53;;;11.40;99.90;;;;;;5021565;28;20443;-84
2024/02/01 13:04:25;;;;;;;1.77;1.67;;;11.60;99.90;;;;;;5020388;28;20439;-82
2024/02/01 13:06:52;;;;;;;0.50;0.40;;;11.90;99.90;;;;;;5020039;28;20440;-81
2024/02/01 13:09:29;;;;;;;0.50;0.40;;;12.20;99.90;;;;;;5011938;28;20448;-83
2024/02/01 13:11:58;;;;;;;0.50;0.40;;;12.70;99.90;;;;;;5020344;28;20461;-81
2024/02/01 13:14:28;;;;;;;0.80;0.70;;;13.00;99.90;;;;;;5020090;28;20479;-82
2024/02/01 13:16:56;;;;;;;0.50;0.40;;;13.10;99.90;;;;;;5020528;28;20456;-81
2024/02/01 13:19:25;;;;;;;0.50;0.40;;;13.10;99.90;;;;;;5020179;28;20439;-81
2024/02/01 13:21:52;;;;;;;30.53;1.60;;;13.20;99.90;;;;;;5019490;28;20439;-83
2024/02/01 13:24:18;;;;;;;1.17;0.60;;;13.40;99.90;;;;;;5020642;28;20518;-81
2024/02/01 13:26:47;;;;;;;0.50;0.40;;;13.20;99.90;;;;;;5020210;28;20551;-81
2024/02/01 13:29:15;;;;;;;0.50;0.37;;;13.40;99.90;;;;;;5019004;28;20447;-83
2024/02/01 13:31:42;;;;;;;0.50;0.40;;;13.90;99.90;;;;;;5019670;28;20930;-81
2024/02/01 13:34:09;;;;;;;0.60;0.50;;;14.30;99.90;;;;;;5020851;28;20858;-82
2024/02/01 13:36:37;;;;;;;0.50;0.40;;;14.50;99.90;;;;;;5018752;28;20516;-82
2024/02/01 13:39:05;;;;;;;0.50;0.40;;;14.50;99.90;;;;;;5018816;28;20444;-81